• Join FlightAware (Why Join?)
  • Login
  • US Flag 
05:10AM EDT


 

Airport Tracker/Info


-or-


 

Live Flight TrackerFlight Track Log ✈ ZK-OKO ✈ 02-May-2012 ✈ EGLL / LHR - KLAX

Flight Track Log - Related Links

Times and Time Zones

All times are in EDT time to prevent confusion due to time zone crossing. See the ZK-OKO flight status page for this flight to view local times or setup timezone preferences in your user account.

Time Position Orientation Groundspeed Altitude Reporting Facility
EDT Latitude Longitude Course Direction KTS MPH feet Rate Location/Type
11:40AM 51.4646 -0.5061 269° West 192 221 900  Level FlightAware ADS-B
11:40AM 51.4643 -0.5294 269° West 192 221 1,600 2,400 Climbing FlightAware ADS-B
11:40AM 51.4641 -0.5450 270° West 197 227 2,000 1,560 Climbing FlightAware ADS-B
11:40AM 51.4642 -0.5693 270° West 221 254 2,300 840 Climbing FlightAware ADS-B
11:41AM 51.4641 -0.5903 266° West 240 276 2,400 900 Climbing FlightAware ADS-B
11:41AM 51.4636 -0.6023 261° West 249 287 2,600 1,680 Climbing FlightAware ADS-B
11:41AM 51.4624 -0.6149 258° West 258 297 2,800 1,620 Climbing FlightAware ADS-B
11:41AM 51.4614 -0.6224 256° West 262 302 2,900 2,460 Climbing FlightAware ADS-B
11:41AM 51.4576 -0.6471 258° West 269 310 3,500 1,980 Climbing FlightAware ADS-B
11:41AM 51.4548 -0.6691 263° West 271 312 3,700 1,200 Climbing FlightAware ADS-B
11:41AM 51.4542 -0.6768 267° West 270 311 3,800 1,500 Climbing FlightAware ADS-B
11:41AM 51.4540 -0.6831 270° West 270 311 3,900 1,980 Climbing FlightAware ADS-B
11:41AM 51.4540 -0.6949 274° West 270 311 4,100 1,980 Climbing FlightAware ADS-B
11:41AM 51.4544 -0.7032 280° West 269 310 4,200 2,220 Climbing FlightAware ADS-B
11:42AM 51.4553 -0.7113 285° West 268 308 4,400 3,420 Climbing FlightAware ADS-B
11:42AM 51.4563 -0.7174 286° West 268 308 4,600 3,960 Climbing FlightAware ADS-B
11:42AM 51.4574 -0.7235 288° West 267 307 4,800 2,760 Climbing FlightAware ADS-B
11:42AM 51.4610 -0.7410 290° West 269 310 5,200 1,920 Climbing FlightAware ADS-B
11:42AM 51.4679 -0.7713 290° West 277 319 5,600 1,140 Climbing FlightAware ADS-B
11:42AM 51.4748 -0.8013 290° West 285 328 5,800 540 Climbing FlightAware ADS-B
11:43AM 51.4815 -0.8310 290° West 285 328 5,900 180 Climbing FlightAware ADS-B
11:43AM 51.4878 -0.8595 290° West 282 325 5,900  Level FlightAware ADS-B
11:43AM 51.4949 -0.8910 290° West 282 325 5,900  Level FlightAware ADS-B
11:43AM 51.5024 -0.9245 290° West 283 326 5,900 180 Level FlightAware ADS-B
11:44AM 51.5091 -0.9545 290° West 285 328 6,000 1,560 Climbing FlightAware ADS-B
11:44AM 51.5159 -0.9847 290° West 284 327 6,700 2,700 Climbing FlightAware ADS-B
11:44AM 51.5222 -1.0129 289° West 286 329 7,400 2,580 Climbing FlightAware ADS-B
11:44AM 51.5294 -1.0458 290° West 290 334 8,100 2,460 Climbing FlightAware ADS-B
11:45AM 51.5362 -1.0765 289° West 296 341 8,700 2,460 Climbing FlightAware ADS-B
11:45AM 51.5403 -1.0953 290° West 298 343 9,100 2,700 Climbing FlightAware ADS-B
11:45AM 51.5479 -1.1298 290° West 299 344 9,800 2,040 Climbing FlightAware ADS-B
11:45AM 51.5598 -1.1837 289° West 318 366 10,500 1,380 Climbing FlightAware ADS-B
11:46AM 51.5726 -1.2436 287° West 349 402 11,000 1,200 Climbing FlightAware ADS-B
11:46AM 51.5874 -1.3222 287° West 382 440 11,600 1,680 Climbing FlightAware ADS-B
11:47AM 51.6011 -1.3944 287° West 400 460 12,600 2,460 Climbing FlightAware ADS-B
11:47AM 51.6178 -1.4814 287° West 410 472 13,900 2,400 Climbing FlightAware ADS-B
11:48AM 51.6353 -1.5716 287° West 422 486 15,100 2,460 Climbing FlightAware ADS-B
11:48AM 51.6501 -1.6485 287° West 428 493 16,200 2,700 Climbing FlightAware ADS-B
11:49AM 51.6678 -1.7410 287° West 435 501 17,600 2,580 Climbing FlightAware ADS-B
11:49AM 51.6857 -1.8352 287° West 441 507 18,800 2,340 Climbing FlightAware ADS-B
11:50AM 51.7045 -1.9343 287° West 450 518 20,000 2,220 Climbing FlightAware ADS-B
11:50AM 51.7229 -2.0328 287° West 457 526 21,100 2,160 Climbing FlightAware ADS-B
11:51AM 51.7416 -2.1329 287° West 464 534 22,200 2,160 Climbing FlightAware ADS-B
11:51AM 51.7602 -2.2327 287° West 470 541 23,300 2,040 Climbing FlightAware ADS-B
11:52AM 51.7793 -2.3363 287° West 476 548 24,300 1,800 Climbing FlightAware ADS-B
11:52AM 51.8013 -2.4557 286° West 481 554 25,300 1,680 Climbing FlightAware ADS-B
11:53AM 51.8123 -2.5182 284° West 489 563 25,800 1,500 Climbing FlightAware ADS-B
11:53AM 51.8215 -2.5769 283° West 494 568 26,200 1,560 Climbing FlightAware ADS-B
11:54AM 51.8380 -2.6931 282° West 500 575 27,100 1,560 Climbing FlightAware ADS-B
11:54AM 51.8655 -2.8967 282° West 512 589 28,500 1,440 Climbing FlightAware ADS-B
11:55AM 51.8847 -3.0416 282° West 519 597 29,400 1,680 Climbing FlightAware ADS-B
11:56AM 51.9091 -3.2299 304° West 524 603 31,000  Climbing FlightAware ADS-B
12:04PM 52.7475 -4.0886 301° West  Level FlightAware Approximate
12:05PM 52.8429 -4.2241 301° West  Level FlightAware Approximate
12:06PM 52.9381 -4.3601 301° West  Level FlightAware Approximate
12:07PM 53.0332 -4.4967 300° West  Level FlightAware Approximate
12:08PM 53.1281 -4.6340 300° West  Level FlightAware Approximate
12:09PM 53.2229 -4.7719 300° West  Level FlightAware Approximate
12:10PM 53.3175 -4.9103 299° West  Level FlightAware Approximate
12:11PM 53.4119 -5.0494 299° West  Level FlightAware Approximate
12:12PM 53.5062 -5.1891 298° West  Level FlightAware Approximate
12:13PM 53.6003 -5.3295 298° West  Level FlightAware Approximate
12:14PM 53.6942 -5.4704 298° West  Level FlightAware Approximate
12:15PM 53.7880 -5.6120 297° West  Level FlightAware Approximate
12:16PM 53.8816 -5.7542 297° West  Level FlightAware Approximate
12:17PM 53.9751 -5.8970 296° West  Level FlightAware Approximate
12:18PM 54.0684 -6.0406 296° West  Level FlightAware Approximate
12:19PM 54.1615 -6.1847 296° West  Level FlightAware Approximate
12:20PM 54.2544 -6.3295 295° West  Level FlightAware Approximate
12:21PM 54.3472 -6.4749 295° West  Level FlightAware Approximate
12:22PM 54.4398 -6.6210 294° West  Level FlightAware Approximate
12:23PM 54.5322 -6.7678 294° West  Level FlightAware Approximate
12:24PM 54.6244 -6.9152 293° West  Level FlightAware Approximate
12:25PM 54.7165 -7.0633 293° West  Level FlightAware Approximate
12:26PM 54.8083 -7.2121 292° West  Level FlightAware Approximate
12:27PM 54.9000 -7.3615 292° West  Level FlightAware Approximate
12:28PM 54.9915 -7.5117 291° West  Level FlightAware Approximate
12:29PM 55.0828 -7.6625 291° West  Level FlightAware Approximate
12:30PM 55.1703 -7.8204 290° West  Level FlightAware Approximate
12:31PM 55.2576 -7.9790 290° West  Level FlightAware Approximate
12:32PM 55.3447 -8.1383 289° West  Level FlightAware Approximate
12:33PM 55.4316 -8.2983 288° West  Level FlightAware Approximate
12:34PM 55.5183 -8.4589 288° West  Level FlightAware Approximate
12:35PM 55.6048 -8.6203 287° West  Level FlightAware Approximate
12:36PM 55.6910 -8.7824 287° West  Level FlightAware Approximate
12:37PM 55.7770 -8.9453 286° West  Level FlightAware Approximate
12:38PM 55.8629 -9.1088 285° West  Level FlightAware Approximate
12:39PM 55.9485 -9.2731 285° West  Level FlightAware Approximate
12:40PM 56.0339 -9.4381 284° West  Level FlightAware Approximate
12:41PM 56.1190 -9.6038 283° West  Level FlightAware Approximate
12:42PM 56.2040 -9.7703 282° West  Level FlightAware Approximate
12:43PM 56.2887 -9.9375 282° West  Level FlightAware Approximate
12:44PM 56.3732 -10.1054 281° West  Level FlightAware Approximate
12:45PM 56.4574 -10.2741 280° West  Level FlightAware Approximate
12:46PM 56.5415 -10.4436 279° West  Level FlightAware Approximate
12:47PM 56.6253 -10.6138 278° West  Level FlightAware Approximate
12:48PM 56.7088 -10.7847 277° West  Level FlightAware Approximate
12:49PM 56.7922 -10.9564 276° West  Level FlightAware Approximate
12:50PM 56.8753 -11.1289 275° West  Level FlightAware Approximate
12:51PM 56.9581 -11.3021 274° West  Level FlightAware Approximate
12:52PM 57.0407 -11.4761 273° West  Level FlightAware Approximate
12:53PM 57.1231 -11.6509 272° West  Level FlightAware Approximate
12:54PM 57.2052 -11.8265 271° West  Level FlightAware Approximate
12:55PM 57.2871 -12.0028 270° West  Level FlightAware Approximate
12:56PM 57.3687 -12.1799 268° West  Level FlightAware Approximate
12:57PM 57.4501 -12.3579 267° West  Level FlightAware Approximate
12:58PM 57.5313 -12.5366 266° West  Level FlightAware Approximate
12:59PM 57.6121 -12.7161 264° West  Level FlightAware Approximate
01:00PM 57.6928 -12.8964 263° West  Level FlightAware Approximate
01:01PM 57.7731 -13.0775 261° West  Level FlightAware Approximate
01:02PM 57.8532 -13.2594 260° West  Level FlightAware Approximate
01:03PM 57.9331 -13.4422 258° West  Level FlightAware Approximate
01:04PM 58.0127 -13.6257 256° West  Level FlightAware Approximate
01:05PM 58.0920 -13.8101 254° West  Level FlightAware Approximate
01:06PM 58.1711 -13.9952 253° West  Level FlightAware Approximate
01:07PM 58.2498 -14.1812 251° West  Level FlightAware Approximate
01:08PM 58.3283 -14.3681 249° West  Level FlightAware Approximate
01:09PM 58.4066 -14.5557 247° West  Level FlightAware Approximate
01:10PM 58.4845 -14.7442 244° Southwest  Level FlightAware Approximate
01:11PM 58.5622 -14.9335 242° Southwest  Level FlightAware Approximate
01:12PM 58.6396 -15.1237 240° Southwest  Level FlightAware Approximate
01:13PM 58.7168 -15.3147 237° Southwest  Level FlightAware Approximate
01:14PM 57.0000 -20.0000 285° West 491 565 33,000  Level ETMS Enhanced Traffic Management System
02:08PM 58.0000 -30.0000 296° West 441 507 33,000  Level ETMS Enhanced Traffic Management System
02:23PM 59.3167 -35.9167 292° West 460 529 33,000  Level Gander Center
02:24PM 59.3667 -36.1667 296° West 460 529 33,000  Level Gander Center
02:25PM 59.4167 -36.3667 285° West 460 529 33,000  Level Gander Center
02:26PM 59.4500 -36.6167 293° West 460 529 33,000  Level Gander Center
02:27PM 59.5000 -36.8500 287° West 460 529 33,000  Level Gander Center
02:28PM 59.5333 -37.0667 292° West 460 529 33,000  Level Gander Center
02:29PM 59.5833 -37.3167 285° West 460 529 33,000  Level Gander Center
02:30PM 59.6167 -37.5667 287° West 460 529 33,000  Level Gander Center
02:31PM 59.6500 -37.7833 292° West 460 529 33,000  Level Gander Center
02:32PM 59.7000 -38.0333 287° West 450 518 33,000  Level Gander Center
02:33PM 59.7333 -38.2500 293° West 450 518 33,000  Level Gander Center
02:34PM 59.7833 -38.4833 287° West 450 518 33,000  Level Gander Center
02:35PM 59.8167 -38.7000 285° West 450 518 33,000  Level Gander Center
02:36PM 59.8500 -38.9500 295° West 450 518 33,000  Level Gander Center
02:37PM 59.9000 -39.1667 285° West 450 518 33,000  Level Gander Center
02:38PM 59.9333 -39.4167 287° West 450 518 33,000  Level Gander Center
02:39PM 59.9667 -39.6333 288° West 450 518 33,000  Level Gander Center
02:40PM 60.0167 -39.9500 304° West 450 518 33,000  Level Gander Center
02:41PM 60.0667 -40.1000 295° West 450 518 33,000  Level Gander Center
02:42PM 60.1167 -40.3167 293° West 450 518 33,000  Level Gander Center
02:43PM 60.1667 -40.5500 295° West 450 518 33,000  Level Gander Center
02:44PM 60.2167 -40.7667 293° West 450 518 33,000  Level Gander Center
02:45PM 60.2667 -41.0000 302° West 450 518 33,000  Level Gander Center
02:46PM 60.3333 -41.2167 295° West 450 518 33,000  Level Gander Center
02:47PM 60.3833 -41.4333 294° West 450 518 33,000  Level Gander Center
02:48PM 60.4333 -41.6667 295° West 450 518 33,000  Level Gander Center
02:49PM 60.4833 -41.8833 292° West 450 518 33,000  Level Gander Center
02:50PM 60.5333 -42.1333 295° West 450 518 33,000  Level Gander Center
02:51PM 60.5833 -42.3500 299° West 450 518 33,000  Level Gander Center
02:52PM 60.6500 -42.6000 295° West 450 518 33,000  Level Gander Center
02:53PM 60.7000 -42.8167 295° West 450 518 33,000  Level Gander Center
02:54PM 60.7500 -43.0333 292° West 450 518 33,000  Level Gander Center
02:55PM 60.8000 -43.2833 295° West 450 518 33,000  Level Gander Center
02:56PM 60.8500 -43.5000 288° West 440 506 33,000  Level Gander Center
02:57PM 60.8833 -43.7167 299° West 440 506 33,000  Level Gander Center
02:58PM 60.9667 -44.0333 288° West 440 506 33,000  Level Gander Center
02:59PM 61.0000 -44.2500 291° West 440 506 33,000  Level Gander Center
03:00PM 61.0500 -44.5167 296° West 440 506 33,000  Level Gander Center
03:01PM 61.1000 -44.7333 287° West 440 506 33,000  Level Gander Center
03:02PM 61.1333 -44.9667 296° West 450 518 33,000  Level Gander Center
03:03PM 61.1833 -45.1833 299° West 450 518 33,000  Level Gander Center
03:04PM 61.2500 -45.4333 287° West 450 518 33,000  Level Gander Center
03:05PM 61.2833 -45.6667 296° West 450 518 33,000  Level Gander Center
03:06PM 61.3333 -45.8833 291° West 450 518 33,000  Level Gander Center
03:07PM 61.3833 -46.1500 287° West 450 518 33,000  Level Gander Center
03:08PM 61.4167 -46.3833 288° West 450 518 33,000  Level Gander Center
03:09PM 61.4500 -46.6000 292° West 450 518 33,000  Level Gander Center
03:10PM 61.5000 -46.8667 294° West 450 518 33,000  Level Gander Center
03:11PM 61.5500 -47.1000 293° West 450 518 33,000  Level Gander Center
03:12PM 61.6000 -47.3500 292° West 450 518 33,000  Level Gander Center
03:13PM 61.6500 -47.6167 270° West 450 518 33,000  Level Gander Center
03:14PM 61.6500 -47.7500 298° West 450 518 33,000  Level Gander Center
03:15PM 61.7167 -48.0167 287° West 450 518 33,000  Level Gander Center
03:16PM 61.7500 -48.2500 292° West 450 518 33,000  Level Gander Center
03:17PM 61.8000 -48.5167 287° West 460 529 33,000  Level Gander Center
03:18PM 61.8333 -48.7500 285° West 470 541 33,000  Level Gander Center
03:19PM 61.8667 -49.0167 291° West 470 541 33,000  Level Gander Center
03:20PM 61.9167 -49.3000 293° West 470 541 33,000  Level Gander Center
03:21PM 61.9667 -49.5500 284° West 480 552 33,000  Level Gander Center
03:22PM 62.0000 -49.8333 292° West 480 552 33,000  Level Gander Center
03:23PM 62.0500 -50.1000 285° West 480 552 33,000  Level Gander Center
03:24PM 62.0833 -50.3667 284° West 480 552 33,000  Level Gander Center
03:25PM 62.1167 -50.6500 285° West 480 552 33,000  Level Gander Center
03:26PM 62.1500 -50.9167 291° West 480 552 33,000  Level Gander Center
03:27PM 62.2000 -51.2000 285° West 480 552 33,000  Level Gander Center
03:28PM 62.2333 -51.4667 284° West 480 552 33,000  Level Gander Center
03:29PM 62.2667 -51.7500 284° West 480 552 33,000  Level Gander Center
03:30PM 62.3000 -52.0333 285° West 490 564 33,000  Level Gander Center
03:31PM 62.3333 -52.3000 284° West 490 564 33,000  Level Gander Center
03:32PM 62.3667 -52.5833 284° West 490 564 33,000  Level Gander Center
03:33PM 62.4000 -52.8667 285° West 490 564 33,000  Level Gander Center
03:34PM 62.4333 -53.1333 284° West 490 564 33,000  Level Gander Center
03:35PM 62.4667 -53.4167 284° West 490 564 33,000  Level Gander Center
03:36PM 62.5000 -53.7000 277° West 490 564 33,000  Level Gander Center
03:37PM 62.5167 -53.9833 284° West 490 564 33,000  Level Gander Center
03:38PM 62.5500 -54.2667 284° West 490 564 33,000  Level Gander Center
03:39PM 62.5833 -54.5500 284° West 490 564 33,000  Level Gander Center
03:40PM 62.6167 -54.8333 284° West 490 564 33,000  Level Gander Center
03:41PM 62.6500 -55.1167 277° West 490 564 33,000  Level Gander Center
03:42PM 62.6667 -55.4333 277° West 490 564 33,000  Level Gander Center
03:43PM 62.6833 -55.7167 285° West 490 564 33,000  Level Gander Center
03:44PM 62.7167 -56.0000 277° West 490 564 33,000  Level Gander Center
03:45PM 62.7333 -56.2833 284° West 480 552 33,000  Level Gander Center
03:46PM 62.7667 -56.5833 283° West 480 552 33,000  Level Gander Center
03:47PM 62.8000 -56.9000 278° West 470 541 33,000  Level Montreal Center
03:48PM 62.8167 -57.1500 285° West 480 552 33,000  Level Montreal Center
03:49PM 62.8500 -57.4333 277° West 480 552 33,000  Level Montreal Center
03:50PM 62.8667 -57.7333 278° West 480 552 33,000  Level Montreal Center
03:51PM 62.8833 -57.9833 277° West 480 552 33,000  Level Gander Center
03:52PM 62.9000 -58.2667 285° West 480 552 33,000  Level Gander Center
03:53PM 62.9333 -58.5500 277° West 490 564 33,000  Level Gander Center
03:54PM 62.9500 -58.8500 277° West 480 552 33,000  Level Gander Center
03:55PM 62.9667 -59.1333 285° West 480 552 33,000  Level Gander Center
03:56PM 63.0000 -59.4167 276° West 480 552 33,000  Level Gander Center
03:57PM 63.0167 -59.7500 270° West 490 564 33,000  Level Gander Center
03:58PM 63.0167 -60.0500 278° West 480 552 33,000  Level Gander Center
03:59PM 63.0333 -60.3000 270° West 480 552 33,000  Level Gander Center
04:00PM 63.0333 -60.5833 263° West 480 552 33,000 720 Level Gander Center
04:01PM 63.0167 -60.8833 270° West 490 564 34,500  Climbing Gander Center
04:02PM 63.0167 -61.1333 277° West 490 564 33,000 -780 Descending Gander Center
04:03PM 63.0333 -61.4333 264° West 480 552 33,000  Level Gander Center
04:04PM 63.0167 -61.7500 276° West 480 552 33,000  Level Gander Center
04:05PM 63.0333 -62.0833 270° West 480 552 33,000  Level Gander Center
04:06PM 63.0333 -62.3833 270° West 480 552 33,000  Level Gander Center
04:07PM 63.0333 -62.6667 270° West 480 552 33,000  Level Gander Center
04:08PM 63.0333 -62.9667 254° West 480 552 33,000 480 Level Gander Center
04:09PM 63.0000 -63.2167 278° West 480 552 34,000 480 Climbing Gander Center
04:10PM 63.0167 -63.5000 270° West 480 552 34,000  Level Gander Center
04:11PM 63.0167 -63.8500 278° West 480 552 34,000  Level Montreal Center
04:12PM 63.0333 -64.1000 263° West 480 552 34,000  Level Gander Center
04:13PM 63.0167 -64.3833 276° West 470 541 34,000  Level Gander Center
04:14PM 63.0333 -64.7167 262° West 480 552 34,000  Level Gander Center
04:15PM 63.0167 -64.9667 277° West 480 552 34,000  Level Gander Center
04:16PM 63.0333 -65.2667 270° West 480 552 34,000  Level Gander Center
04:17PM 63.0333 -65.5500 270° West 470 541 34,000  Level Gander Center
04:18PM 63.0333 -65.8500 270° West 480 552 34,000  Level Gander Center
04:19PM 63.0333 -66.1333 270° West 470 541 34,000  Level Gander Center
04:20PM 63.0333 -66.4000 270° West 470 541 34,000  Level Gander Center
04:21PM 63.0333 -66.6833 270° West 470 541 34,000  Level Gander Center
04:22PM 63.0333 -67.0167 270° West 480 552 34,000  Level Gander Center
04:23PM 63.0333 -67.3167 270° West 470 541 34,000  Level Montreal Center
04:24PM 63.0333 -67.6000 270° West 470 541 34,000 600 Level Montreal Center
04:25PM 63.0333 -67.9000 255° West 470 541 35,200 960 Climbing Montreal Center
04:26PM 63.0000 -68.1667 270° West 470 541 36,000 360 Climbing Montreal Center
04:27PM 63.0000 -68.4667 270° West 470 541 36,000  Level Montreal Center
04:28PM 63.0000 -68.7667 270° West 470 541 36,000  Level Montreal Center
04:29PM 63.0000 -69.0167 270° West 470 541 36,000  Level Montreal Center
04:30PM 63.0000 -69.3500 263° West 480 552 36,000  Level Montreal Center
04:31PM 62.9833 -69.6500 262° West 470 541 36,000  Level Montreal Center
04:32PM 62.9667 -69.9167 270° West 470 541 36,000  Level Montreal Center
04:33PM 62.9667 -70.2167 197° South 470 541 36,000  Level Montreal Center
04:34PM 62.9167 -70.2500 264° West 480 552 36,000  Level Edmonton Center
04:35PM 62.9000 -70.5667 262° West 470 541 36,000  Level Edmonton Center
04:36PM 62.8833 -70.8167 263° West 470 541 36,000  Level Edmonton Center
04:37PM 62.8667 -71.1000 270° West 470 541 36,000  Level Edmonton Center
04:38PM 62.8667 -71.4000 263° West 480 552 36,000  Level Edmonton Center
04:39PM 62.8500 -71.6833 270° West 470 541 36,000  Level Edmonton Center
04:40PM 62.8500 -71.9667 264° West 470 541 36,000  Level Edmonton Center
04:41PM 62.8333 -72.2833 262° West 480 552 36,000  Level Edmonton Center
04:42PM 62.8167 -72.5500 262° West 470 541 36,000  Level Edmonton Center
04:43PM 62.8000 -72.8000 264° West 460 529 36,000  Level Edmonton Center
04:44PM 62.7833 -73.1167 270° West 460 529 36,000  Level Edmonton Center
04:45PM 62.7833 -73.3833 255° West 470 541 36,000  Level Edmonton Center
04:46PM 62.7500 -73.6500 270° West 470 541 36,000  Level Edmonton Center
04:47PM 62.7500 -73.9500 256° West 470 541 36,000  Level Edmonton Center
04:48PM 62.7167 -74.2333 270° West 470 541 36,000  Level Edmonton Center
04:49PM 62.7167 -74.5167 262° West 470 541 36,000  Level Edmonton Center
04:50PM 62.7000 -74.7833 256° West 460 529 36,000  Level Edmonton Center
04:51PM 62.6667 -75.0667 263° West 460 529 36,000  Level Edmonton Center
04:52PM 62.6500 -75.3500 263° West 460 529 36,000  Level Edmonton Center
04:53PM 62.6333 -75.6333 262° West 460 529 36,000  Level Edmonton Center
04:54PM 62.6167 -75.8833 263° West 460 529 36,000  Level Edmonton Center
04:55PM 62.6000 -76.1833 255° West 460 529 36,000  Level Edmonton Center
04:56PM 62.5667 -76.4500 262° West 470 541 36,000  Level Edmonton Center
04:57PM 62.5500 -76.7167 263° West 460 529 36,000  Level Edmonton Center
04:58PM 62.5333 -77.0000 256° West 460 529 36,000  Level Edmonton Center
04:59PM 62.5000 -77.2833 262° West 460 529 36,000  Level Edmonton Center
05:00PM 62.4833 -77.5333 263° West 460 529 36,000  Level Edmonton Center
05:01PM 62.4667 -77.8333 255° West 460 529 36,000  Level Edmonton Center
05:02PM 62.4333 -78.1000 262° West 460 529 36,000  Level Edmonton Center
05:03PM 62.4167 -78.3500 257° West 460 529 36,000  Level Edmonton Center
05:04PM 62.3833 -78.6667 262° West 460 529 36,000  Level Edmonton Center
05:05PM 62.3667 -78.9167 263° West 460 529 36,000  Level Edmonton Center
05:06PM 62.3500 -79.2000 248° West 460 529 36,000  Level Edmonton Center
05:07PM 62.3000 -79.4667 262° West 460 529 36,000  Level Edmonton Center
05:08PM 62.2833 -79.7333 254° West 460 529 36,000  Level Edmonton Center
05:09PM 62.2500 -79.9833 255° West 460 529 36,000  Level Edmonton Center
05:10PM 62.2167 -80.2500 254° West 460 529 36,000  Level Edmonton Center
05:11PM 62.1833 -80.5000 257° West 460 529 36,000  Level Edmonton Center
05:12PM 62.1500 -80.8000 262° West 460 529 36,000  Level Edmonton Center
05:13PM 62.1333 -81.0500 248° West 460 529 36,000  Level Edmonton Center
05:14PM 62.0833 -81.3167 263° West 460 529 36,000  Level Edmonton Center
05:15PM 62.0667 -81.5833 247° West 460 529 36,000  Level Edmonton Center
05:16PM 62.0167 -81.8333 254° West 460 529 36,000  Level Edmonton Center
05:17PM 61.9833 -82.0833 257° West 460 529 36,000  Level Edmonton Center
05:18PM 61.9500 -82.3833 254° West 460 529 36,000  Level Edmonton Center
05:19PM 61.9167 -82.6333 248° West 460 529 36,000  Level Edmonton Center
05:20PM 61.8667 -82.9000 262° West 460 529 36,000  Level Edmonton Center
05:21PM 61.8500 -83.1500 247° West 460 529 36,000  Level Edmonton Center
05:22PM 61.8000 -83.4000 254° West 460 529 36,000  Level Edmonton Center
05:23PM 61.7667 -83.6500 249° West 450 518 36,000  Level Edmonton Center
05:24PM 61.7167 -83.9167 254° West 450 518 36,000  Level Edmonton Center
05:25PM 61.6833 -84.1667 263° West 450 518 36,000  Level Edmonton Center
05:26PM 61.6667 -84.4333 249° West 450 518 36,000  Level Edmonton Center
05:27PM 61.6167 -84.7000 254° West 450 518 36,000  Level Edmonton Center
05:28PM 61.5833 -84.9500 247° West 450 518 36,000  Level Edmonton Center
05:29PM 61.5333 -85.2000 247° West 450 518 36,000  Level Edmonton Center
05:30PM 61.4833 -85.4500 247° West 450 518 36,000  Level Edmonton Center
05:31PM 61.4333 -85.7000 253° West 450 518 36,000  Level Edmonton Center
05:32PM 61.4000 -85.9333 255° West 450 518 36,000  Level Edmonton Center
05:33PM 61.3667 -86.1833 247° West 450 518 36,000  Level Edmonton Center
05:34PM 61.3167 -86.4333 255° West 450 518 36,000  Level Edmonton Center
05:35PM 61.2833 -86.6833 248° West 450 518 36,000  Level Edmonton Center
05:36PM 61.2333 -86.9333 246° West 450 518 36,000  Level Edmonton Center
05:37PM 61.1833 -87.1667 254° West 450 518 36,000  Level Edmonton Center
05:38PM 61.1500 -87.4000 248° West 450 518 36,000  Level Edmonton Center
05:39PM 61.1000 -87.6500 256° West 450 518 36,000  Level Edmonton Center
05:40PM 61.0667 -87.9333 240° Southwest 450 518 36,000  Level Edmonton Center
05:41PM 61.0000 -88.1667 255° West 450 518 36,000  Level Edmonton Center
05:42PM 60.9667 -88.4167 246° West 450 518 36,000  Level Edmonton Center
05:43PM 60.9167 -88.6500 246° West 450 518 36,000  Level Edmonton Center
05:44PM 60.8667 -88.8833 255° West 450 518 36,000  Level Edmonton Center
05:45PM 60.8333 -89.1333 240° Southwest 450 518 36,000  Level Edmonton Center
05:46PM 60.7667 -89.3667 254° West 450 518 36,000  Level Edmonton Center
05:47PM 60.7333 -89.6000 242° Southwest 450 518 36,000  Level Edmonton Center
05:48PM 60.6667 -89.8500 254° West 450 518 36,000  Level Edmonton Center
05:49PM 60.6333 -90.0833 240° Southwest 450 518 36,000  Level Edmonton Center
05:50PM 60.5667 -90.3167 247° West 450 518 36,000  Level Edmonton Center
05:51PM 60.5167 -90.5500 254° West 450 518 36,000  Level Edmonton Center
05:52PM 60.4833 -90.7833 240° Southwest 450 518 36,000  Level Edmonton Center
05:53PM 60.4167 -91.0167 249° West 450 518 36,000  Level Edmonton Center
05:54PM 60.3667 -91.2833 247° West 450 518 36,000  Level Edmonton Center
05:55PM 60.3167 -91.5167 247° West 450 518 36,000  Level Edmonton Center
05:56PM 60.2667 -91.7500 240° Southwest 450 518 36,000  Level Edmonton Center
05:57PM 60.2000 -91.9833 245° Southwest 460 529 36,000  Level Edmonton Center
05:58PM 60.1500 -92.2000 254° West 450 518 36,000  Level Edmonton Center
05:59PM 60.1167 -92.4333 240° Southwest 460 529 36,000  Level Edmonton Center
06:00PM 60.0500 -92.6667 248° West 460 529 36,000  Level Edmonton Center
06:01PM 60.0000 -92.9167 236° Southwest 460 529 36,000  Level Edmonton Center
06:02PM 59.9333 -93.1167 235° Southwest 450 518 36,000  Level Edmonton Center
06:03PM 59.8500 -93.3500 237° Southwest 450 518 36,000  Level Edmonton Center
06:04PM 59.7833 -93.5500 234° Southwest 450 518 36,000  Level Edmonton Center
06:05PM 59.7167 -93.7333 241° Southwest 450 518 36,000  Level Edmonton Center
06:06PM 59.6500 -93.9667 235° Southwest 450 518 36,000  Level Edmonton Center
06:07PM 59.5667 -94.2000 234° Southwest 450 518 36,000  Level Edmonton Center
06:08PM 59.5000 -94.3833 241° Southwest 460 529 36,000  Level Edmonton Center
06:09PM 59.4333 -94.6167 228° Southwest 450 518 36,000  Level Edmonton Center
06:10PM 59.3500 -94.8000 235° Southwest 460 529 36,000  Level Edmonton Center
06:11PM 59.2667 -95.0333 235° Southwest 460 529 36,000  Level Edmonton Center
06:12PM 59.2000 -95.2167 239° Southwest 450 518 36,000  Level Edmonton Center
06:13PM 59.1333 -95.4333 237° Southwest 450 518 36,000  Level Edmonton Center
06:14PM 59.0667 -95.6333 233° Southwest 450 518 36,000  Level Edmonton Center
06:15PM 58.9833 -95.8500 235° Southwest 450 518 36,000  Level Edmonton Center
06:16PM 58.9167 -96.0333 233° Southwest 450 518 36,000  Level Edmonton Center
06:17PM 58.8333 -96.2500 229° Southwest 450 518 36,000  Level Edmonton Center
06:18PM 58.7500 -96.4333 239° Southwest 450 518 36,000  Level Edmonton Center
06:19PM 58.6833 -96.6500 235° Southwest 450 518 36,000  Level Edmonton Center
06:20PM 58.6167 -96.8333 234° Southwest 450 518 36,000  Level Edmonton Center
06:21PM 58.5333 -97.0500 233° Southwest 450 518 36,000  Level Edmonton Center
06:22PM 58.4667 -97.2167 234° Southwest 450 518 36,000  Level Edmonton Center
06:23PM 58.3833 -97.4333 229° Southwest 450 518 36,000  Level Edmonton Center
06:24PM 58.3000 -97.6167 240° Southwest 450 518 36,000  Level Edmonton Center
06:25PM 58.2333 -97.8333 227° Southwest 460 529 36,000  Level Edmonton Center
06:26PM 58.1500 -98.0000 240° Southwest 460 529 36,000  Level Edmonton Center
06:27PM 58.0833 -98.2167 221° Southwest 450 518 36,000  Level Edmonton Center
06:28PM 57.9833 -98.3833 240° Southwest 450 518 36,000  Level Edmonton Center
06:29PM 57.9167 -98.6000 227° Southwest 450 518 36,000  Level Edmonton Center
06:30PM 57.8333 -98.7667 238° Southwest 450 518 36,000  Level Edmonton Center
06:31PM 57.7667 -98.9667 230° Southwest 450 518 36,000  Level Edmonton Center
06:32PM 57.6833 -99.1500 227° Southwest 450 518 36,000  Level Edmonton Center
06:33PM 57.5833 -99.3500 233° Southwest 450 518 36,000  Level Edmonton Center
06:34PM 57.5167 -99.5167 232° Southwest 450 518 36,000  Level Edmonton Center
06:35PM 57.4333 -99.7167 236° Southwest 450 518 36,000  Level Edmonton Center
06:36PM 57.3667 -99.9000 232° Southwest 450 518 36,000  Level Edmonton Center
06:37PM 57.2833 -100.1000 227° Southwest 450 518 36,000  Level Edmonton Center
06:38PM 57.2000 -100.2667 233° Southwest 450 518 36,000  Level Edmonton Center
06:39PM 57.1167 -100.4667 227° Southwest 450 518 36,000  Level Edmonton Center
06:40PM 57.0333 -100.6333 230° Southwest 460 529 36,000  Level Edmonton Center
06:41PM 56.9500 -100.8167 228° Southwest 450 518 36,000  Level Edmonton Center
06:42PM 56.8667 -100.9833 239° Southwest 450 518 36,000  Level Edmonton Center
06:43PM 56.8000 -101.1833 228° Southwest 460 529 36,000  Level Edmonton Center
06:44PM 56.7167 -101.3500 223° Southwest 450 518 36,000  Level Edmonton Center
06:45PM 56.6167 -101.5167 231° Southwest 450 518 36,000  Level Edmonton Center
06:46PM 56.5333 -101.7000 228° Southwest 450 518 36,000  Level Edmonton Center
06:47PM 56.4500 -101.8667 237° Southwest 460 529 36,000  Level Edmonton Center
06:48PM 56.3833 -102.0500 228° Southwest 460 529 36,000  Level Edmonton Center
06:49PM 56.2833 -102.2500 225° Southwest 460 529 36,000  Level Edmonton Center
06:50PM 56.2000 -102.4000 223° Southwest 460 529 36,000  Level Edmonton Center
06:51PM 56.1000 -102.5667 225° Southwest 460 529 36,000  Level Edmonton Center
06:52PM 56.0167 -102.7167 220° Southwest 460 529 36,000  Level Edmonton Center
06:53PM 55.9167 -102.8667 219° Southwest 460 529 36,000  Level Edmonton Center
06:54PM 55.8000 -103.0333 233° Southwest 460 529 36,000  Level Edmonton Center
06:55PM 55.7000 -103.2667 217° Southwest 470 541 36,000  Level Winnipeg Center
06:56PM 55.6000 -103.4000 229° Southwest 460 529 36,000  Level Winnipeg Center
06:57PM 55.5167 -103.5667 210° Southwest 460 529 36,000  Level Winnipeg Center
06:58PM 55.4000 -103.6833 229° Southwest 460 529 36,000  Level Winnipeg Center
06:59PM 55.3167 -103.8500 217° Southwest 460 529 36,000  Level Winnipeg Center
07:00PM 55.2167 -103.9833 217° Southwest 460 529 36,000  Level Winnipeg Center
07:01PM 55.1167 -104.1167 221° Southwest 460 529 36,000  Level Winnipeg Center
07:02PM 55.0167 -104.2667 223° Southwest 460 529 36,000  Level Winnipeg Center
07:03PM 54.9333 -104.4000 201° Southwest 460 529 36,000  Level Winnipeg Center
07:04PM 54.8333 -104.4667 221° Southwest 450 518 36,000  Level Edmonton Center
07:05PM 54.7333 -104.6167 218° Southwest 450 518 36,000  Level Edmonton Center
07:06PM 54.6333 -104.7500 221° Southwest 450 518 36,000  Level Edmonton Center
07:07PM 54.5333 -104.9000 214° Southwest 450 518 36,000  Level Edmonton Center
07:08PM 54.4333 -105.0167 226° Southwest 450 518 36,000 240 Level Edmonton Center
07:09PM 54.3500 -105.1667 221° Southwest 450 518 36,500 900 Climbing Edmonton Center
07:10PM 54.2500 -105.3167 221° Southwest 450 518 37,800 660 Climbing Edmonton Center
07:11PM 54.1167 -105.5167 214° Southwest 460 529 38,000 60 Climbing Winnipeg Center
07:12PM 54.0167 -105.6333 230° Southwest 460 529 38,000  Level Winnipeg Center
07:13PM 53.9333 -105.8000 211° Southwest 460 529 38,000  Level Winnipeg Center
07:14PM 53.8167 -105.9167 222° Southwest 460 529 38,000  Level Winnipeg Center
07:15PM 53.7167 -106.0667 215° Southwest 460 529 38,000  Level Winnipeg Center
07:16PM 53.6167 -106.1833 222° Southwest 460 529 38,000  Level Winnipeg Center
07:17PM 53.5167 -106.3333 215° Southwest 460 529 38,000  Level Winnipeg Center
07:18PM 53.4167 -106.4500 222° Southwest 460 529 38,000  Level Winnipeg Center
07:19PM 53.3167 -106.6000 215° Southwest 470 541 38,000  Level Winnipeg Center
07:20PM 53.2167 -106.7167 214° Southwest 470 541 38,000  Level Winnipeg Center
07:21PM 53.1000 -106.8500 224° Southwest 470 541 38,000  Level Winnipeg Center
07:22PM 53.0167 -106.9833 215° Southwest 470 541 38,000  Level Winnipeg Center
07:23PM 52.9000 -107.1167 215° Southwest 470 541 38,000  Level Winnipeg Center
07:24PM 52.8000 -107.2333 215° Southwest 460 529 38,000  Level Winnipeg Center
07:25PM 52.6833 -107.3667 220° Southwest 460 529 38,000  Level Winnipeg Center
07:26PM 52.6000 -107.4833 218° Southwest 460 529 38,000  Level Winnipeg Center
07:27PM 52.4833 -107.6333 215° Southwest 460 529 38,000  Level Winnipeg Center
07:28PM 52.3833 -107.7500 206° Southwest 460 529 38,000  Level Winnipeg Center
07:29PM 52.3000 -107.8167 216° Southwest 460 529 38,000  Level Edmonton Center
07:30PM 52.2000 -107.9333 215° Southwest 460 529 38,000  Level Edmonton Center
07:31PM 52.0833 -108.0667 212° Southwest 460 529 38,000  Level Edmonton Center
07:32PM 51.9833 -108.1667 226° Southwest 460 529 38,000  Level Edmonton Center
07:33PM 51.8833 -108.3333 208° Southwest 460 529 38,000  Level Edmonton Center
07:34PM 51.7667 -108.4333 220° Southwest 460 529 38,000  Level Edmonton Center
07:35PM 51.6667 -108.5667 216° Southwest 460 529 38,000  Level Edmonton Center
07:36PM 51.5667 -108.6833 215° Southwest 460 529 38,000  Level Edmonton Center
07:37PM 51.4500 -108.8167 216° Southwest 460 529 38,000  Level Edmonton Center
07:38PM 51.3500 -108.9333 212° Southwest 460 529 38,000  Level Edmonton Center
07:39PM 51.2500 -109.0333 219° Southwest 460 529 38,000  Level Edmonton Center
07:40PM 51.1333 -109.1833 212° Southwest 460 529 38,000  Level Edmonton Center
07:41PM 51.0333 -109.2833 220° Southwest 460 529 38,000  Level Edmonton Center
07:42PM 50.9333 -109.4167 212° Southwest 460 529 38,000  Level Edmonton Center
07:43PM 50.8167 -109.5333 216° Southwest 460 529 38,000  Level Edmonton Center
07:44PM 50.7167 -109.6500 222° Southwest 460 529 38,000  Level Edmonton Center
07:45PM 50.6000 -109.8167 216° Southwest 470 541 38,000  Level Winnipeg Center
07:46PM 50.4833 -109.9500 194° South 470 541 38,000  Level Winnipeg Center
07:47PM 50.4000 -109.9833 216° Southwest 460 529 38,000  Level Edmonton Center
07:48PM 50.2833 -110.1167 217° Southwest 460 529 38,000  Level Edmonton Center
07:49PM 50.1833 -110.2333 217° Southwest 460 529 38,000  Level Edmonton Center
07:50PM 50.0833 -110.3500 217° Southwest 460 529 38,000  Level Edmonton Center
07:51PM 49.9833 -110.4667 213° Southwest 460 529 38,000  Level Edmonton Center
07:52PM 49.8667 -110.5833 213° Southwest 460 529 38,000  Level Edmonton Center
07:53PM 49.7667 -110.6833 213° Southwest 460 529 38,000  Level Edmonton Center
07:54PM 49.6500 -110.8000 217° Southwest 460 529 38,000  Level Edmonton Center
07:55PM 49.5500 -110.9167 213° Southwest 460 529 38,000  Level Edmonton Center
07:56PM 49.4333 -111.0333 222° Southwest 460 529 38,000  Level Edmonton Center
07:57PM 49.3500 -111.1500 209° Southwest 460 529 38,000  Level Edmonton Center
07:58PM 49.2333 -111.2500 217° Southwest 460 529 38,000  Level Edmonton Center
07:59PM 49.1333 -111.3667 209° Southwest 460 529 38,000  Level Edmonton Center
08:00PM 49.0167 -111.4667 213° Southwest 460 529 38,000  Level Edmonton Center
08:01PM 48.9167 -111.5667 213° Southwest 460 529 38,000  Level Edmonton Center
08:02PM 48.8000 -111.6833 218° Southwest 460 529 38,000  Level Edmonton Center
08:03PM 48.7000 -111.8000 213° Southwest 460 529 38,000  Level Edmonton Center
08:04PM 48.5833 -111.9167 214° Southwest 460 529 38,000  Level Edmonton Center
08:05PM 48.4833 -112.0167 205° Southwest 460 529 38,000  Level Edmonton Center
08:06PM 48.3667 -112.1000 218° Southwest 460 529 38,000  Level Edmonton Center
08:07PM 48.2667 -112.2167 214° Southwest 460 529 38,000  Level Edmonton Center
08:08PM 48.1500 -112.3333 219° Southwest 460 529 38,000  Level Edmonton Center
08:09PM 48.0667 -112.4333 210° Southwest 460 529 38,000  Level Edmonton Center
08:10PM 47.9333 -112.5500 214° Southwest 450 518 38,000  Level Edmonton Center
08:11PM 47.8500 -112.6333 210° Southwest 450 518 38,000  Level Edmonton Center
08:12PM 47.7333 -112.7333 218° Southwest 450 518 38,000  Level Edmonton Center
08:13PM 47.6333 -112.8500 210° Southwest 460 529 38,000  Level Edmonton Center
08:14PM 47.5167 -112.9500 229° Southwest 460 529 38,000  Level Edmonton Center
08:14PM 47.5003 -112.9783 212° Southwest 457 526 38,000  Level Salt Lake Center
08:15PM 47.3917 -113.0794 213° Southwest 458 527 38,000  Level Salt Lake Center
08:16PM 47.2844 -113.1806 213° Southwest 457 526 38,000 -60 Level Salt Lake Center
08:17PM 47.1775 -113.2808 213° Southwest 457 526 37,900  Descending Salt Lake Center
08:18PM 47.0706 -113.3814 213° Southwest 457 526 38,000  Climbing Salt Lake Center
08:19PM 46.9628 -113.4822 212° Southwest 458 527 38,000  Level Salt Lake Center
08:21PM 46.8539 -113.5825 212° Southwest 461 531 38,000  Level Salt Lake Center
08:22PM 46.7236 -113.7025 212° Southwest 461 531 38,000  Level Salt Lake Center
08:23PM 46.6167 -113.8003 212° Southwest 457 526 38,000  Level Salt Lake Center
08:24PM 46.5092 -113.8983 212° Southwest 456 525 38,000  Level Salt Lake Center
08:25PM 46.4017 -113.9944 212° Southwest 455 524 38,000  Level Salt Lake Center
08:26PM 46.2939 -114.0903 212° Southwest 455 524 38,000  Level Salt Lake Center
08:27PM 46.1864 -114.1861 212° Southwest 454 522 38,000  Level Salt Lake Center
08:28PM 46.0800 -114.2803 212° Southwest 451 519 38,000  Level Salt Lake Center
08:29PM 45.9733 -114.3758 211° Southwest 451 519 38,000  Level Salt Lake Center
08:30PM 45.8519 -114.4822 211° Southwest 451 519 38,000  Level Salt Lake Center
08:31PM 45.7311 -114.5878 211° Southwest 454 522 38,000  Level Salt Lake Center
08:32PM 45.6272 -114.6786 212° Southwest 456 525 38,000  Level Salt Lake Center
08:33PM 45.5072 -114.7844 211° Southwest 455 524 38,000  Level Salt Lake Center
08:34PM 45.4050 -114.8736 211° Southwest 452 520 38,000  Level Salt Lake Center
08:35PM 45.3025 -114.9614 211° Southwest 450 518 38,000  Level Salt Lake Center
08:36PM 45.1828 -115.0625 211° Southwest 448 516 38,000  Level Salt Lake Center
08:37PM 45.0808 -115.1506 211° Southwest 448 516 38,000  Level Salt Lake Center
08:38PM 44.9625 -115.2519 211° Southwest 446 513 38,000  Level Salt Lake Center
08:39PM 44.8608 -115.3383 211° Southwest 445 512 38,000  Level Salt Lake Center
08:40PM 44.7431 -115.4381 211° Southwest 442 509 38,000  Level Salt Lake Center
08:41PM 44.6433 -115.5236 211° Southwest 440 506 38,000  Level Salt Lake Center
08:42PM 44.5425 -115.6075 210° Southwest 439 505 38,000  Level Salt Lake Center
08:43PM 44.4228 -115.7061 210° Southwest 441 507 38,000  Level Salt Lake Center
08:44PM 44.3211 -115.7894 210° Southwest 440 506 38,000  Level Salt Lake Center
08:45PM 44.2031 -115.8864 211° Southwest 437 503 38,000  Level Salt Lake Center
08:46PM 44.1000 -115.9719 211° Southwest 443 510 38,000  Level Salt Lake Center
08:47PM 43.9978 -116.0561 210° Southwest 444 511 38,000  Level Salt Lake Center
08:48PM 43.8800 -116.1519 210° Southwest 439 505 38,000  Level Salt Lake Center
08:49PM 43.7789 -116.2342 210° Southwest 438 504 38,000  Level Salt Lake Center
08:50PM 43.6617 -116.3283 210° Southwest 436 502 38,000  Level Salt Lake Center
08:51PM 43.5611 -116.4081 210° Southwest 435 501 38,000  Level Salt Lake Center
08:52PM 43.4447 -116.5022 210° Southwest 435 501 38,000  Level Salt Lake Center
08:53PM 43.3433 -116.5817 210° Southwest 436 502 38,000  Level Salt Lake Center
08:54PM 43.2422 -116.6617 210° Southwest 438 504 38,000  Level Salt Lake Center
08:56PM 43.1222 -116.7572 210° Southwest 445 512 38,000  Level Salt Lake Center
08:57PM 43.0186 -116.8381 210° Southwest 446 513 38,000  Level Salt Lake Center
08:58PM 42.8983 -116.9322 210° Southwest 447 514 38,000  Level Salt Lake Center
08:59PM 42.7961 -117.0119 210° Southwest 443 510 38,000  Level Salt Lake Center
09:00PM 42.6769 -117.1044 209° Southwest 442 509 38,000  Level Salt Lake Center
09:01PM 42.5739 -117.1833 210° Southwest 443 510 38,000  Level Salt Lake Center
09:02PM 42.4703 -117.2642 210° Southwest 448 516 38,000  Level Salt Lake Center
09:03PM 42.3497 -117.3575 210° Southwest 447 514 38,000  Level Salt Lake Center
09:04PM 42.2367 -117.4444 209° Southwest 448 516 38,000  Level Salt Lake Center
09:05PM 42.1322 -117.5231 209° Southwest 448 516 38,000  Level Salt Lake Center
09:06PM 42.0272 -117.6022 209° Southwest 451 519 38,000  Level Salt Lake Center
09:07PM 41.9031 -117.6961 210° Southwest 456 525 38,000  Level Salt Lake Center
09:08PM 41.7986 -117.7761 209° Southwest 454 522 38,000  Level Salt Lake Center
09:09PM 41.6753 -117.8694 209° Southwest 455 524 38,000  Level Salt Lake Center
09:10PM 41.5689 -117.9494 204° Southwest 458 527 38,000  Level Salt Lake Center
09:11PM 41.4372 -118.0281 198° South 465 535 38,000  Level Salt Lake Center
09:12PM 41.3156 -118.0792 197° South 480 552 38,000  Level Salt Lake Center
09:13PM 41.1953 -118.1294 198° South 477 549 38,000  Level Salt Lake Center
09:14PM 41.0536 -118.1897 198° South 478 550 38,000  Level Salt Lake Center
09:15PM 40.9306 -118.2425 198° South 482 555 38,000  Level Salt Lake Center
09:16PM 40.7875 -118.3022 198° South 484 557 38,000  Level Salt Lake Center
09:17PM 40.6633 -118.3539 197° South 487 560 38,000  Level Salt Lake Center
09:18PM 40.5175 -118.4128 193° South 491 565 38,000  Level Salt Lake Center
09:19PM 40.3892 -118.4511 192° South 494 568 38,000  Level Salt Lake Center
09:20PM 40.2361 -118.4922 192° South 500 575 38,000  Level Salt Lake Center
09:21PM 40.1056 -118.5289 191° South 501 577 38,000  Level Salt Lake Center
09:22PM 39.9814 -118.5617 192° South 499 574 38,000  Level Salt Lake Center
09:23PM 39.8178 -118.6081 192° South 500 575 38,000  Level Salt Lake Center
09:24PM 39.6808 -118.6456 192° South 501 577 38,000  Level Salt Lake Center
09:25PM 39.5433 -118.6833 192° South 504 580 38,000  Level Salt Lake Center
09:26PM 39.4064 -118.7211 192° South 508 585 38,000  Level Salt Lake Center
09:28PM 39.2147 -118.7731 193° South 509 586 38,000  Level Oakland Center
09:29PM 39.0903 -118.8089 191° South 519 597 38,000  Level Oakland Center
09:30PM 38.9511 -118.8425 193° South 519 597 38,000  Level Oakland Center
09:31PM 38.8183 -118.8811 192° South 509 586 38,000  Level Oakland Center
09:32PM 38.6814 -118.9169 192° South 504 580 38,000  Level Oakland Center
09:33PM 38.5444 -118.9528 192° South 509 586 38,000  Level Oakland Center
09:34PM 38.4094 -118.9883 192° South 509 586 38,000 -300 Level Oakland Center
09:35PM 38.2744 -119.0239 192° South 509 586 37,400 -540 Descending Oakland Center
09:36PM 38.1250 -119.0647 193° South 504 580 37,000 -240 Descending Oakland Center
09:37PM 37.9961 -119.1022 189° South 497 572 37,000  Level Oakland Center
09:38PM 37.8631 -119.1294 191° South 492 566 37,000  Level Oakland Center
09:39PM 37.7281 -119.1642 192° South 492 566 37,000  Level Oakland Center
09:40PM 37.6139 -119.1958 193° South 497 572 37,000  Level Oakland Center
09:41PM 37.4600 -119.2414 192° South 519 597 37,000  Level Oakland Center
09:42PM 37.3189 -119.2786 193° South 524 603 37,000  Level Oakland Center
09:43PM 37.1775 -119.3183 191° South 524 603 37,000  Level Oakland Center
09:44PM 37.0342 -119.3528 191° South 524 603 37,000  Level Oakland Center
09:45PM 36.8906 -119.3869 192° South 524 603 37,000  Level Oakland Center
09:46PM 36.7472 -119.4236 191° South 524 603 37,000  Level Oakland Center
09:47PM 36.6036 -119.4575 193° South 524 603 37,000  Level Oakland Center
09:48PM 36.4644 -119.4964 192° South 524 603 37,000  Level Oakland Center
09:49PM 36.3208 -119.5328 191° South 524 603 37,000  Level Oakland Center
09:51PM 36.0119 -119.6078 184° South 545 627 37,000  Level Los Angeles Center
09:52PM 35.8656 -119.6194 182° South 540 621 37,000  Level Los Angeles Center
09:53PM 35.7192 -119.6258 180° South 540 621 37,000 -900 Level Los Angeles Center
09:54PM 35.5692 -119.6247 171° South 540 621 35,300 -1,860 Descending Los Angeles Center
09:55PM 35.4258 -119.5956 168° South 531 611 33,300 -2,040 Descending Los Angeles Center
09:56PM 35.2872 -119.5592 155° Southeast 526 605 31,300 -1,860 Descending Los Angeles Center
09:57PM 35.1639 -119.4878 148° Southeast 503 579 29,600 -1,800 Descending Los Angeles Center
09:58PM 35.0392 -119.3939 147° Southeast 488 562 27,800 -1,800 Descending Los Angeles Center
09:59PM 34.9328 -119.3111 150° Southeast 474 545 26,100 -1,740 Descending Los Angeles Center
10:00PM 34.8283 -119.2364 148° Southeast 456 525 24,400 -1,560 Descending Los Angeles Center
10:01PM 34.7281 -119.1592 151° Southeast 435 501 23,000 -1,500 Descending Los Angeles Center
10:02PM 34.6378 -119.0978 148° Southeast 422 486 21,500 -1,680 Descending Los Angeles Center
10:03PM 34.5456 -119.0289 148° Southeast 404 465 19,700 -2,160 Descending Los Angeles Center
10:04PM 34.4572 -118.9631 149° Southeast 392 451 17,200 -2,100 Descending Los Angeles Center
10:05PM 34.3711 -118.8997 160° South 380 437 15,500 -1,680 Descending Los Angeles Center
10:06PM 34.2742 -118.8561 163° South 367 422 13,900 -1,680 Descending Los Angeles Center
10:07PM 34.1706 -118.8178 162° South 361 415 12,200 -1,440 Descending Los Angeles Center
10:08PM 34.0817 -118.7822 117° Southeast 348 400 11,100 -1,080 Descending Los Angeles Center
10:09PM 34.0419 -118.6883 100° East 305 351 10,100 -1,020 Descending Los Angeles Center
10:10PM 34.0272 -118.5875 99° East 285 328 9,100 -960 Descending Los Angeles Center
10:11PM 34.0144 -118.4919 90° East 285 328 8,200 -840 Descending Los Angeles Center
10:12PM 34.0142 -118.4067 88° East 285 328 7,500 -1,320 Descending Los Angeles Center
10:13PM 34.0167 -118.3000 73° East 260 299 5,600 -1,380 Descending Southern California TRACON
10:14PM 34.0333 -118.2333 90° East 191 220 4,700 -960 Descending Southern California TRACON
10:15PM 34.0333 -118.1667 90° East 178 205 3,700 -1,080 Descending Southern California TRACON
10:16PM 34.0333 -118.1167 180° South 180 207 2,700 -600 Descending Southern California TRACON
10:17PM 34.0000 -118.1167 248° West 180 207 2,600 -60 Descending Southern California TRACON
10:18PM 33.9833 -118.1667 253° West 179 206 2,600  Level Southern California TRACON
10:19PM 33.9667 -118.2333 270° West 180 207 2,600 -360 Level Southern California TRACON
10:20PM 33.9667 -118.2833 253° West 175 201 1,900 -780 Descending Southern California TRACON
10:21PM 33.9500 -118.3500 253° West 150 173 1,100 -840 Descending Southern California TRACON